Time;durP1;ratioP1;P1;durP2;ratioP2;P2;SDS_P1;SDS_P2;PMS_P1;PMS_P2;Temp;Humidity;BMP_temperature;BMP_pressure;BME280_temperature;BME280_humidity;BME280_pressure;Samples;Min_cycle;Max_cycle;Signal;HPM_P1;HPM_P2
2024/02/05 00:02:17;;;;;;;;;;;;;;;;;;;;;
2024/02/05 00:07:42;;;;;;;6.05;3.85;;;;;;;7.87;61.63;99429.00;6182418;23;20005;-96
2024/02/05 00:10:25;;;;;;;5.05;3.13;;;;;;;7.81;61.46;99434.56;6150834;23;20028;-96
2024/02/05 00:16:17;;;;;;;5.60;3.00;;;;;;;7.93;61.99;99447.81;6127560;23;20114;-96
2024/02/05 00:18:43;;;;;;;4.40;3.10;;;;;;;7.92;61.73;99449.69;6103603;23;20057;-96
2024/02/05 00:21:09;;;;;;;4.72;2.67;;;;;;;7.84;61.45;99434.88;6079526;23;20013;-96
2024/02/05 00:26:42;;;;;;;7.60;2.70;;;;;;;7.94;60.91;99452.13;6024300;23;20050;-96
2024/02/05 00:29:51;;;;;;;4.97;3.00;;;;;;;7.81;61.15;99424.63;6081069;23;20416;-96
2024/02/05 00:32:20;;;;;;;6.60;2.88;;;;;;;8.00;61.40;99449.25;6129731;23;20449;-96
2024/02/05 00:34:46;;;;;;;5.10;2.55;;;;;;;7.88;61.13;99430.59;6054774;23;20029;-95
2024/02/05 00:37:12;;;;;;;3.47;2.55;;;;;;;8.01;60.75;99432.13;6055207;23;20452;-96
2024/02/05 00:39:37;;;;;;;3.40;2.45;;;;;;;7.99;60.73;99412.78;6054571;23;20405;-96
2024/02/05 00:42:03;;;;;;;3.58;2.30;;;;;;;7.99;59.94;99415.47;6055633;23;20016;-96
2024/02/05 00:44:38;;;;;;;3.10;2.35;;;;;;;8.05;59.54;99411.78;6056368;23;20002;-96
2024/02/05 00:50:09;;;;;;;7.05;2.10;;;;;;;8.30;59.09;99421.19;6220227;22;20028;-96
2024/02/05 00:53:20;;;;;;;;;;;;;;;;;;;;;
2024/02/05 01:02:10;;;;;;;3.95;1.90;;;;;;;8.68;58.12;99425.59;5992001;24;20023;-96
2024/02/05 01:04:37;;;;;;;3.95;1.80;;;;;;;8.61;58.19;99405.41;6011060;23;20007;-96
2024/02/05 01:07:03;;;;;;;4.75;1.80;;;;;;;8.70;56.87;99402.00;6105733;23;20335;-96
2024/02/05 01:09:41;;;;;;;3.20;2.00;;;;;;;8.71;57.06;99386.69;6146552;23;20005;-96
2024/02/05 01:12:08;;;;;;;3.38;1.83;;;;;;;8.83;55.98;99391.91;6173206;23;20000;-96
2024/02/05 01:14:42;;;;;;;2.50;1.50;;;;;;;8.85;55.42;99370.97;6149262;23;20000;-96
2024/02/05 01:17:16;;;;;;;2.80;1.75;;;;;;;9.03;55.56;99375.16;6174420;23;20004;-96
2024/02/05 01:19:48;;;;;;;2.10;1.42;;;;;;;9.02;55.73;99374.31;6150696;23;20000;-96
2024/02/05 01:22:17;;;;;;;1.77;1.30;;;;;;;8.96;55.54;99367.28;6151361;23;20027;-96
2024/02/05 01:24:44;;;;;;;3.15;1.30;;;;;;;9.09;54.84;99369.53;6148641;23;20004;-96
2024/02/05 01:27:15;;;;;;;2.67;1.52;;;;;;;9.11;54.56;99350.50;6174425;23;20005;-96
2024/02/05 01:29:46;;;;;;;2.97;1.60;;;;;;;9.20;54.65;99365.03;6176048;23;20036;-96
2024/02/05 01:32:14;;;;;;;2.03;1.25;;;;;;;9.25;54.60;99359.69;6149398;23;19996;-96
2024/02/05 01:34:44;;;;;;;3.17;1.50;;;;;;;9.23;54.24;99343.03;6148328;23;20000;-96
2024/02/05 01:37:10;;;;;;;4.80;1.40;;;;;;;9.25;54.96;99332.81;6151247;23;19996;-96
2024/02/05 01:39:39;;;;;;;2.83;1.48;;;;;;;9.22;54.72;99319.13;6149048;23;20001;-96
2024/02/05 01:42:08;;;;;;;1.70;1.30;;;;;;;9.23;55.05;99331.47;6151445;23;20007;-96
2024/02/05 01:44:36;;;;;;;2.50;1.05;;;;;;;9.21;54.85;99323.66;6145647;23;20040;-96
2024/02/05 01:47:04;;;;;;;2.45;1.30;;;;;;;9.32;54.32;99332.59;6147889;23;20020;-96
2024/02/05 01:49:41;;;;;;;1.60;1.10;;;;;;;9.36;54.44;99324.81;6149563;23;20027;-96
2024/02/05 01:52:17;;;;;;;2.60;1.50;;;;;;;9.38;54.45;99328.06;6152449;23;19996;-96
2024/02/05 01:54:48;;;;;;;2.15;1.40;;;;;;;9.44;54.38;99322.47;6154374;23;20008;-96
2024/02/05 01:57:19;;;;;;;4.15;1.80;;;;;;;9.45;54.03;99301.75;6153613;23;19997;-96
2024/02/05 01:59:49;;;;;;;2.58;1.30;;;;;;;9.46;54.12;99284.56;6150963;23;20011;-96
2024/02/05 02:02:15;;;;;;;2.95;1.65;;;;;;;9.56;53.69;99300.72;6152531;23;20008;-96
2024/02/05 02:04:44;;;;;;;3.40;1.92;;;;;;;9.54;54.00;99286.72;6150969;23;20007;-96
2024/02/05 02:07:12;;;;;;;3.05;1.77;;;;;;;9.56;53.75;99292.66;6151378;23;20339;-96
2024/02/05 02:09:47;;;;;;;2.50;1.73;;;;;;;9.68;53.47;99297.81;6175655;23;20419;-96
2024/02/05 02:12:37;;;;;;;3.42;2.10;;;;;;;9.65;53.52;99280.34;6174382;23;20024;-96
2024/02/05 02:15:13;;;;;;;2.03;1.40;;;;;;;9.66;53.04;99276.56;6178696;23;20024;-96
2024/02/05 02:17:45;;;;;;;2.03;1.30;;;;;;;9.85;53.39;99305.66;6154510;23;20005;-96
2024/02/05 02:20:16;;;;;;;2.95;1.48;;;;;;;9.83;53.43;99303.22;6149832;23;20012;-96
2024/02/05 04:02:03;;;;;;;3.95;2.45;;;;;;;9.72;53.71;99229.00;6217749;22;20427;-96
2024/02/05 04:04:29;;;;;;;3.58;2.08;;;;;;;9.76;54.07;99234.66;6168605;23;20012;-96
2024/02/05 04:06:55;;;;;;;3.85;1.90;;;;;;;9.70;54.40;99240.00;6141187;23;20000;-96
2024/02/05 04:09:21;;;;;;;3.22;2.15;;;;;;;9.75;53.84;99251.84;6142701;23;19996;-96
2024/02/05 04:11:50;;;;;;;3.22;1.80;;;;;;;9.81;53.75;99243.50;6143812;23;20001;-96
2024/02/05 04:14:15;;;;;;;3.00;2.08;;;;;;;9.86;53.67;99240.06;6144956;23;20001;-96
2024/02/05 04:16:41;;;;;;;4.50;1.85;;;;;;;9.83;53.95;99233.31;6143152;23;20000;-96
2024/02/05 04:19:07;;;;;;;3.70;2.25;;;;;;;9.84;53.87;99231.44;6142973;23;20007;-96
2024/02/05 04:21:33;;;;;;;3.03;2.00;;;;;;;9.83;53.98;99243.25;6144479;23;20009;-96
2024/02/05 04:24:04;;;;;;;4.00;2.33;;;;;;;9.91;54.00;99259.66;6135276;23;20017;-96
2024/02/05 04:26:30;;;;;;;3.38;2.17;;;;;;;9.82;54.02;99245.16;6114810;23;20063;-96
2024/02/05 04:28:56;;;;;;;4.32;2.55;;;;;;;9.88;54.27;99246.78;6113703;23;20005;-96
2024/02/05 05:01:17;;;;;;;8.85;2.60;;;;;;;9.66;54.78;99246.19;6219880;22;20027;-95
2024/02/05 05:03:46;;;;;;;4.35;2.83;;;;;;;9.74;54.78;99248.34;6143447;23;20016;-96
2024/02/05 05:06:12;;;;;;;3.63;2.22;;;;;;;9.74;54.71;99247.56;6145908;23;20012;-96
2024/02/05 05:08:38;;;;;;;5.63;3.13;;;;;;;9.90;54.61;99265.34;6146214;23;20001;-96
2024/02/05 05:11:29;;;;;;;;;;;;;;;;;;;;;
2024/02/05 05:13:55;;;;;;;15.55;9.43;;;;;;;9.77;54.96;99241.63;6165715;23;20024;-96
2024/02/05 05:16:24;;;;;;;10.30;5.82;;;;;;;9.69;55.43;99235.72;6145115;23;20007;-95
2024/02/05 05:18:50;;;;;;;9.85;4.35;;;;;;;9.69;54.70;99240.25;6146428;23;20447;-95
2024/02/05 05:21:15;;;;;;;14.95;7.18;;;;;;;9.58;54.67;99215.25;6146884;23;20011;-95
2024/02/05 05:23:42;;;;;;;8.00;3.92;;;;;;;9.55;55.02;99220.38;6144544;23;20503;-95
2024/02/05 05:26:14;;;;;;;5.85;3.15;;;;;;;9.53;55.11;99238.63;6147500;23;19996;-96
2024/02/05 05:28:41;;;;;;;12.10;3.47;;;;;;;9.49;55.01;99241.84;6146476;23;20004;-95
2024/02/05 05:31:07;;;;;;;8.48;3.30;;;;;;;9.52;55.48;99245.88;6144783;23;20334;-96
2024/02/05 05:33:33;;;;;;;9.07;3.53;;;;;;;9.44;55.47;99233.78;6142741;23;20004;-96
2024/02/05 05:36:02;;;;;;;13.38;4.00;;;;;;;9.36;55.35;99245.03;6144979;23;20000;-95
2024/02/05 05:38:32;;;;;;;11.55;3.72;;;;;;;9.41;55.55;99255.00;6145044;23;20039;-95
2024/02/05 05:40:59;;;;;;;8.82;5.05;;;;;;;9.34;55.90;99255.25;6146486;23;20053;-96
2024/02/05 05:43:30;;;;;;;13.20;6.35;;;;;;;9.21;55.69;99259.19;6144302;23;20039;-94
2024/02/05 05:59:32;;;;;;;9.48;3.88;;;;;;;9.62;52.51;99272.78;6232873;22;21119;-96
2024/02/05 06:02:01;;;;;;;7.13;4.32;;;;;;;9.76;52.89;99291.13;6145653;23;20012;-96
2024/02/05 06:04:29;;;;;;;6.00;3.35;;;;;;;9.74;52.36;99272.56;6145826;23;20001;-96
2024/02/05 06:06:54;;;;;;;19.92;7.07;;;;;;;9.85;52.56;99287.63;6148370;23;20000;-95
2024/02/05 06:09:21;;;;;;;16.08;7.85;;;;;;;9.86;52.10;99283.06;6147735;23;20012;-96
2024/02/05 06:11:50;;;;;;;8.80;3.67;;;;;;;9.96;51.32;99291.16;6145637;23;19996;-95
2024/02/05 06:14:18;;;;;;;10.90;4.18;;;;;;;10.01;51.50;99277.72;6144067;23;20012;-95
2024/02/05 06:16:44;;;;;;;6.25;2.72;;;;;;;10.12;50.11;99297.34;6144166;23;20084;-95
2024/02/05 06:19:12;;;;;;;5.82;3.50;;;;;;;10.24;50.30;99297.13;6143656;23;20427;-94
2024/02/05 06:21:46;;;;;;;8.77;4.22;;;;;;;10.28;50.35;99285.53;6146484;23;20000;-95
2024/02/05 06:24:16;;;;;;;6.95;4.18;;;;;;;10.35;50.67;99300.66;6171867;23;20435;-94
2024/02/05 06:27:02;;;;;;;12.65;5.32;;;;;;;10.31;51.43;99286.91;6149409;23;20008;-96
2024/02/05 06:29:46;;;;;;;8.23;5.30;;;;;;;10.51;51.04;99302.25;6167118;23;20498;-96
2024/02/05 06:35:44;;;;;;;29.98;18.00;;;;;;;10.55;50.44;99289.88;6129942;23;20016;-93
2024/02/05 06:38:10;;;;;;;11.43;6.30;;;;;;;10.64;50.37;99287.44;6103084;23;20448;-96
2024/02/05 06:40:39;;;;;;;114.55;59.13;;;;;;;10.73;50.42;99299.31;6112011;23;20009;-94
2024/02/05 06:55:43;;;;;;;11.60;3.45;;;;;;;11.45;47.70;99294.50;6194534;23;20075;-96
2024/02/05 07:04:39;;;;;;;10.30;3.42;;;;;;;11.73;46.87;99267.97;6221489;23;20542;-96
2024/02/05 07:08:19;;;;;;;8.98;5.00;;;;;;;11.90;46.04;99279.22;6145370;23;20008;-96
2024/02/05 07:10:59;;;;;;;15.63;6.90;;;;;;;11.97;45.88;99262.69;6209950;23;20027;-96
2024/02/05 07:28:31;;;;;;;5.22;2.13;;;;;;;12.91;42.83;99251.63;6259972;23;20086;-96
2024/02/05 07:30:57;;;;;;;3.30;1.80;;;;;;;13.02;42.77;99265.84;6178571;23;20350;-96
2024/02/05 07:33:26;;;;;;;4.20;1.90;;;;;;;13.14;42.18;99255.44;6175217;23;20316;-96
2024/02/05 07:35:56;;;;;;;3.20;2.00;;;;;;;13.29;42.08;99259.09;6181023;23;20004;-96
2024/02/05 07:38:21;;;;;;;3.47;1.85;;;;;;;13.32;41.69;99244.97;6201376;23;20007;-96
2024/02/05 07:41:03;;;;;;;5.88;2.13;;;;;;;13.47;41.97;99257.53;6175890;23;20016;-96
2024/02/05 07:43:55;;;;;;;5.40;1.95;;;;;;;13.53;41.86;99243.63;6201055;23;20011;-95
2024/02/05 07:46:29;;;;;;;;;;;;;;;13.74;41.22;99270.41;6197296;23;20011;-96
2024/02/05 07:48:57;;;;;;;3.92;2.08;;;;;;;13.64;41.26;99240.78;6199399;23;20246;-95
2024/02/05 07:51:55;;;;;;;;;;;;;;;;;;;;;
2024/02/05 07:57:54;;;;;;;5.82;2.20;;;;;;;14.15;41.32;99258.97;6228354;22;20032;-96
2024/02/05 08:01:10;;;;;;;3.30;1.80;;;;;;;14.35;41.09;99265.97;6197715;23;20101;-96
2024/02/05 08:03:36;;;;;;;7.72;3.65;;;;;;;14.40;40.77;99237.97;6196426;23;20000;-94
2024/02/05 08:06:33;;;;;;;3.58;2.25;;;;;;;14.43;40.20;99237.41;6167240;23;20009;-96
2024/02/05 08:15:40;;;;;;;5.82;1.90;;;;;;;15.04;39.44;99257.19;6234041;22;20012;-96
2024/02/05 08:33:17;;;;;;;5.47;2.10;;;;;;;15.39;38.30;99260.31;6227443;22;20503;-96
2024/02/05 08:36:26;;;;;;;10.73;2.30;;;;;;;15.30;38.25;99239.31;6186720;23;20060;-96
2024/02/05 08:38:52;;;;;;;8.20;2.85;;;;;;;15.39;38.33;99250.25;6124543;23;20301;-96
2024/02/05 08:41:42;;;;;;;;;;;;;;;;;;;;;
2024/02/05 08:50:33;;;;;;;6.20;2.15;;;;;;;15.84;38.65;99272.13;6135653;22;20142;-96
2024/02/05 08:53:01;;;;;;;6.63;1.85;;;;;;;15.92;38.25;99271.38;6181473;23;20009;-96
2024/02/05 08:55:51;;;;;;;6.38;2.08;;;;;;;16.04;37.99;99262.72;6155908;23;20090;-96
2024/02/05 08:58:17;;;;;;;3.28;1.90;;;;;;;16.05;38.29;99277.09;6134775;23;20070;-96
2024/02/05 09:03:21;;;;;;;4.25;2.13;;;;;;;16.14;37.71;99280.66;6226559;22;20024;-95
2024/02/05 09:06:15;;;;;;;4.50;2.33;;;;;;;16.30;37.24;99294.69;6154801;23;19997;-96
2024/02/05 09:08:41;;;;;;;6.15;2.17;;;;;;;16.25;37.57;99276.59;6197904;23;19985;-96
2024/02/05 09:11:33;;;;;;;4.38;2.25;;;;;;;16.36;37.44;99293.47;6155506;23;20004;-96
2024/02/05 09:45:31;;;;;;;4.53;1.85;;;;;;;16.43;37.22;99214.22;6209420;22;20028;-95
2024/02/05 09:57:09;;;;;;;4.60;1.65;;;;;;;16.76;37.32;99239.16;6222898;22;20102;-96
2024/02/05 10:02:44;;;;;;;3.92;1.60;;;;;;;16.65;38.04;99218.81;6196603;22;20021;-96
2024/02/05 10:05:15;;;;;;;1.75;1.13;;;;;;;16.69;37.46;99220.59;6125250;23;20009;-94
2024/02/05 10:08:01;;;;;;;3.42;1.30;;;;;;;16.77;37.86;99221.75;6119139;23;20380;-95
2024/02/05 10:10:34;;;;;;;3.92;1.67;;;;;;;16.86;37.77;99227.25;6141073;23;20001;-95
2024/02/05 10:13:37;;;;;;;5.10;1.40;;;;;;;16.90;37.59;99229.03;6121497;23;20001;-96
2024/02/05 10:16:53;;;;;;;3.28;1.63;;;;;;;16.79;37.29;99197.78;6172608;23;20009;-96
2024/02/05 10:20:19;;;;;;;;;;;;;;;;;;;;;
2024/02/05 10:26:19;;;;;;;7.53;1.88;;;;;;;16.94;37.54;99180.25;6010275;23;20011;-96
2024/02/05 10:31:52;;;;;;;3.67;2.03;;;;;;;17.06;37.82;99169.56;6194729;23;20029;-95
2024/02/05 10:34:24;;;;;;;8.38;1.90;;;;;;;17.13;37.22;99167.16;6121632;23;20069;-96
2024/02/05 10:36:56;;;;;;;3.22;1.70;;;;;;;17.14;37.07;99144.31;6125125;23;19996;-94
2024/02/05 10:39:25;;;;;;;3.70;1.40;;;;;;;17.21;37.16;99152.00;6117141;23;20000;-94
2024/02/05 10:41:56;;;;;;;3.13;1.48;;;;;;;17.20;36.78;99149.56;6115983;23;20427;-96
2024/02/05 10:44:22;;;;;;;2.20;1.50;;;;;;;17.27;37.16;99161.59;6117644;23;20088;-96
2024/02/05 10:46:54;;;;;;;4.22;1.65;;;;;;;17.42;36.88;99164.97;6117120;23;20012;-95
2024/02/05 10:49:29;;;;;;;2.92;1.40;;;;;;;17.37;37.03;99146.88;6120663;23;20094;-95
2024/02/05 10:52:31;;;;;;;;;;;;;;;;;;;;;
2024/02/05 10:55:15;;;;;;;2.72;1.40;;;;;;;17.38;37.07;99137.59;6157331;23;20384;-94
2024/02/05 10:57:46;;;;;;;4.22;1.52;;;;;;;17.24;36.51;99148.63;6116375;23;19997;-94
2024/02/05 11:00:21;;;;;;;3.95;1.70;;;;;;;17.33;37.10;99124.16;6114057;23;20083;-95
2024/02/05 11:09:44;;;;;;;4.68;1.77;;;;;;;17.69;34.65;99133.91;5937996;24;20108;-94
2024/02/05 11:12:17;;;;;;;9.02;2.33;;;;;;;17.74;34.59;99137.28;5912871;24;20009;-95
2024/02/05 11:14:54;;;;;;;3.95;2.00;;;;;;;17.84;34.69;99143.53;6014094;23;20003;-96
2024/02/05 11:18:12;;;;;;;2.58;1.58;;;;;;;17.80;34.59;99135.16;6012876;23;20013;-96
2024/02/05 11:24:30;;;;;;;;;;;;;;;;;;;;;
2024/02/05 11:26:34;;;;;;;2.92;1.70;;;;;;;17.81;34.91;99116.94;6208704;22;20024;-96
2024/02/05 11:29:00;;;;;;;2.78;1.55;;;;;;;17.73;34.85;99146.56;6156936;23;20035;-94
2024/02/05 11:31:30;;;;;;;3.22;1.45;;;;;;;17.66;35.15;99148.97;6148165;23;19997;-96
2024/02/05 11:37:35;;;;;;;4.35;1.90;;;;;;;17.59;35.88;99135.03;6215577;23;19988;-96
2024/02/05 11:40:05;;;;;;;2.45;1.40;;;;;;;17.53;35.59;99139.81;6180217;23;20004;-96
2024/02/05 11:42:40;;;;;;;7.55;1.40;;;;;;;17.50;35.53;99128.78;6152173;23;20464;-95
2024/02/05 11:45:06;;;;;;;6.35;1.40;;;;;;;17.58;35.57;99122.56;6154275;23;20000;-96
2024/02/05 11:55:18;;;;;;;6.90;1.75;;;;;;;17.55;35.99;99118.53;6261321;23;20039;-96
2024/02/05 12:01:31;;;;;;;5.63;1.88;;;;;;;17.56;35.45;99105.75;6171684;23;20006;-96
2024/02/05 12:04:55;;;;;;;4.13;1.67;;;;;;;17.74;35.56;99120.94;6140311;23;20013;-96
2024/02/05 12:27:04;;;;;;;3.42;2.03;;;;;;;17.97;34.16;99109.84;6216883;22;20039;-96
2024/02/05 12:41:45;;;;;;;7.15;1.90;;;;;;;18.17;33.76;99111.09;6212820;22;20025;-96
2024/02/05 12:54:39;;;;;;;;;;;;;;;;;;;;;
2024/02/05 12:57:38;;;;;;;3.22;2.10;;;;;;;18.17;33.05;99114.59;6218827;23;20032;-96
2024/02/05 13:08:15;;;;;;;3.05;2.03;;;;;;;17.94;32.49;99100.41;6232802;22;20100;-95
2024/02/05 13:10:54;;;;;;;4.20;1.90;;;;;;;17.99;32.17;99099.44;6170349;23;20495;-95
2024/02/05 13:13:23;;;;;;;;;;;;;;;18.04;32.09;99123.00;6198312;23;20424;-96
2024/02/05 13:15:51;;;;;;;5.43;2.40;;;;;;;17.85;32.27;99107.81;6173797;23;19926;-96
2024/02/05 13:18:22;;;;;;;4.22;2.03;;;;;;;17.94;31.79;99111.31;6142889;23;20445;-94
2024/02/05 13:20:52;;;;;;;4.80;2.30;;;;;;;17.95;31.47;99104.75;6167814;23;20019;-94
2024/02/05 13:23:31;;;;;;;4.55;2.50;;;;;;;18.02;31.67;99096.06;6166327;23;20000;-94
2024/02/05 13:26:07;;;;;;;3.55;2.17;;;;;;;18.15;31.59;99121.50;6146638;23;20011;-94
2024/02/05 13:28:39;;;;;;;3.45;2.42;;;;;;;18.03;31.52;99089.47;6149015;23;20009;-96
2024/02/05 13:31:05;;;;;;;7.93;2.40;;;;;;;18.06;31.26;99098.97;6194909;23;19977;-96
2024/02/05 13:33:50;;;;;;;5.45;2.45;;;;;;;18.04;30.89;99098.47;6144947;23;20104;-94
2024/02/05 13:40:03;;;;;;;;;;;;;;;;;;;;;
2024/02/05 13:52:02;;;;;;;6.22;2.22;;;;;;;18.18;30.43;99071.84;6228229;22;20048;-92
2024/02/05 13:54:28;;;;;;;5.57;2.15;;;;;;;18.25;29.88;99085.75;6188654;23;20015;-91
2024/02/05 14:03:11;;;;;;;4.35;2.70;;;;;;;18.46;29.84;99082.28;6229031;22;20029;-94
2024/02/05 14:05:42;;;;;;;3.97;2.60;;;;;;;18.40;29.58;99086.31;6170319;23;20019;-95
2024/02/05 14:08:09;;;;;;;4.10;2.67;;;;;;;18.29;29.50;99089.41;6168785;23;20351;-94
2024/02/05 14:10:37;;;;;;;5.63;2.53;;;;;;;18.32;29.84;99093.41;6163654;23;19997;-96
2024/02/05 14:13:03;;;;;;;3.90;2.60;;;;;;;18.23;30.00;99079.81;6143817;23;19996;-95
2024/02/05 14:15:30;;;;;;;6.82;2.72;;;;;;;18.31;29.80;99095.34;6143953;23;20082;-96
2024/02/05 14:18:00;;;;;;;4.32;2.50;;;;;;;18.27;29.35;99096.31;6168709;23;20005;-94
2024/02/05 14:20:33;;;;;;;4.03;2.38;;;;;;;18.26;29.76;99105.59;6174523;23;20004;-95
2024/02/05 14:23:04;;;;;;;5.57;2.75;;;;;;;18.17;30.14;99087.34;6175333;23;20431;-95
2024/02/05 14:26:05;;;;;;;7.18;3.00;;;;;;;18.18;29.78;99109.97;6183021;23;19984;-96
2024/02/05 14:28:39;;;;;;;4.90;2.80;;;;;;;18.21;29.67;99101.13;6026229;23;20014;-95
2024/02/05 14:31:30;;;;;;;3.67;2.28;;;;;;;18.17;29.39;99124.72;6002302;23;20031;-96
2024/02/05 14:34:12;;;;;;;;;;;;;;;;;;;;;
2024/02/05 14:51:31;;;;;;;;;;;;;;;;;;;;;
2024/02/05 14:54:32;;;;;;;;;;;;;;;;;;;;;
2024/02/05 14:57:20;;;;;;;5.72;2.72;;;;;;;17.65;29.75;99119.34;6174523;23;20008;-96
2024/02/05 14:59:50;;;;;;;8.93;3.55;;;;;;;17.53;30.62;99114.53;6105486;23;20010;-96
2024/02/05 15:02:30;;;;;;;;;;;;;;;;;;;;;
2024/02/05 15:05:21;;;;;;;7.95;2.30;;;;;;;17.38;30.27;99103.00;6059890;23;20044;-96
2024/02/05 15:16:49;;;;;;;;;;;;;;;;;;;;;
2024/02/05 15:20:11;;;;;;;;;;;;;;;;;;;;;
2024/02/05 15:22:40;;;;;;;5.03;2.80;;;;;;;17.22;30.48;99136.44;6160344;23;20051;-96
2024/02/05 15:25:38;;;;;;;4.72;2.97;;;;;;;17.05;30.71;99123.63;6153544;23;20060;-96
2024/02/05 15:28:27;;;;;;;5.25;2.88;;;;;;;17.05;30.27;99118.19;6162891;23;20009;-96
2024/02/05 15:31:47;;;;;;;5.75;2.75;;;;;;;16.98;30.31;99123.31;6206196;23;20001;-96
2024/02/05 15:52:45;;;;;;;5.63;3.38;;;;;;;16.87;29.61;99160.84;6221534;22;20055;-95
2024/02/05 15:55:31;;;;;;;6.90;3.58;;;;;;;16.83;29.88;99151.72;6156488;23;20013;-96
2024/02/05 15:57:57;;;;;;;8.70;4.18;;;;;;;16.78;29.61;99166.25;6170604;23;20092;-94
2024/02/05 16:01:01;;;;;;;7.53;3.38;;;;;;;16.69;29.56;99160.78;6119379;23;20043;-96
2024/02/05 16:03:27;;;;;;;6.25;3.45;;;;;;;16.68;29.49;99166.53;6105292;23;20010;-96
2024/02/05 16:05:54;;;;;;;5.28;3.13;;;;;;;16.60;30.09;99183.59;6131222;22;20007;-96
2024/02/05 16:23:11;;;;;;;6.05;3.15;;;;;;;16.34;30.20;99176.91;6190480;23;20036;-96
2024/02/05 16:26:24;;;;;;;7.57;3.63;;;;;;;16.48;29.35;99195.06;6139887;23;20017;-95
2024/02/05 16:28:54;;;;;;;8.30;4.57;;;;;;;16.45;29.52;99187.53;6164646;23;20012;-96
2024/02/05 16:31:23;;;;;;;10.00;3.92;;;;;;;16.34;29.34;99195.94;6141098;23;19993;-96
2024/02/05 16:33:57;;;;;;;5.15;3.05;;;;;;;16.35;29.56;99194.84;6142523;23;19993;-96
2024/02/05 16:48:28;;;;;;;6.38;3.50;;;;;;;16.15;29.73;99227.94;6237136;22;20021;-96
2024/02/05 16:50:57;;;;;;;9.70;3.88;;;;;;;16.17;29.79;99237.38;6151713;23;20012;-95
2024/02/05 16:53:22;;;;;;;4.30;2.92;;;;;;;16.12;29.67;99231.28;6147426;23;20000;-96
2024/02/05 16:56:02;;;;;;;6.15;3.20;;;;;;;16.04;30.39;99234.72;6145273;23;20128;-96
2024/02/05 16:58:31;;;;;;;5.60;3.15;;;;;;;15.98;30.27;99235.94;6174792;23;19996;-95
2024/02/05 17:00:58;;;;;;;6.18;3.70;;;;;;;16.05;30.11;99253.44;6149283;23;20004;-95
2024/02/05 17:03:27;;;;;;;12.07;4.50;;;;;;;15.93;30.81;99236.88;6152411;23;20092;-95
2024/02/05 17:05:53;;;;;;;7.70;3.90;;;;;;;15.94;30.65;99241.22;6148225;23;20005;-96
2024/02/05 17:11:11;;;;;;;5.82;3.10;;;;;;;15.97;30.75;99256.88;6184142;23;20026;-96
2024/02/05 17:13:40;;;;;;;6.40;3.42;;;;;;;15.99;30.74;99270.16;6151330;23;19997;-96
2024/02/05 17:16:12;;;;;;;7.97;3.75;;;;;;;15.88;31.16;99242.44;6156632;23;20000;-96
2024/02/05 17:18:40;;;;;;;5.88;3.80;;;;;;;15.99;30.80;99259.31;6180051;23;20080;-96
2024/02/05 17:21:17;;;;;;;4.80;3.35;;;;;;;15.84;31.12;99242.25;6156276;23;20091;-96
2024/02/05 17:23:50;;;;;;;5.55;3.40;;;;;;;15.69;31.29;99245.28;6155800;23;20014;-96
2024/02/05 17:26:15;;;;;;;6.63;3.70;;;;;;;15.66;31.46;99241.25;6152466;23;20020;-96
2024/02/05 17:28:41;;;;;;;7.28;3.67;;;;;;;15.72;31.36;99259.06;6147532;23;20008;-96
2024/02/05 17:31:12;;;;;;;8.13;4.28;;;;;;;15.80;31.85;99256.75;6148172;23;19996;-96
2024/02/05 17:33:38;;;;;;;10.48;5.20;;;;;;;15.75;31.49;99247.59;6148143;23;20404;-96
2024/02/05 17:36:07;;;;;;;10.40;5.13;;;;;;;15.68;31.60;99255.31;6148043;23;20024;-96
2024/02/05 17:38:35;;;;;;;10.02;5.43;;;;;;;15.74;31.76;99262.28;6150802;23;20004;-95
2024/02/05 17:41:01;;;;;;;10.25;5.07;;;;;;;15.64;32.12;99258.94;6144682;23;20008;-94
2024/02/05 17:43:27;;;;;;;9.80;5.15;;;;;;;15.59;32.41;99270.72;6145788;23;20442;-96
2024/02/05 17:45:52;;;;;;;9.15;5.13;;;;;;;15.43;32.49;99250.44;6145353;23;20020;-96
2024/02/05 17:48:18;;;;;;;8.48;4.57;;;;;;;15.39;32.95;99252.16;6144704;23;20020;-96
2024/02/05 17:50:43;;;;;;;11.65;4.47;;;;;;;15.32;32.75;99241.72;6144787;23;20055;-96
2024/02/05 17:53:09;;;;;;;9.00;4.20;;;;;;;15.39;32.63;99258.38;6144876;23;19997;-95
2024/02/05 17:55:36;;;;;;;7.93;3.80;;;;;;;15.35;32.80;99263.59;6144401;23;20005;-95
2024/02/05 17:58:06;;;;;;;6.70;4.00;;;;;;;15.36;32.77;99257.09;6150775;23;20050;-96
2024/02/05 18:00:33;;;;;;;7.65;4.18;;;;;;;15.42;33.14;99267.81;6148494;23;20094;-96
2024/02/05 18:03:00;;;;;;;5.85;3.53;;;;;;;15.32;32.89;99258.78;6151107;23;20001;-96
2024/02/05 18:05:31;;;;;;;6.63;4.07;;;;;;;15.37;33.32;99271.44;6150693;23;20004;-96
2024/02/05 18:07:56;;;;;;;8.17;5.00;;;;;;;15.25;33.32;99268.44;6145449;23;20001;-96
2024/02/05 18:10:22;;;;;;;6.55;4.60;;;;;;;15.19;33.42;99273.19;6147667;23;20027;-96
2024/02/05 18:12:48;;;;;;;8.98;4.45;;;;;;;15.16;33.75;99271.84;6151392;23;20039;-96
2024/02/05 18:15:15;;;;;;;5.65;3.85;;;;;;;15.27;33.69;99293.34;6151060;23;20036;-96
2024/02/05 18:17:41;;;;;;;7.53;3.45;;;;;;;15.16;33.93;99284.63;6171864;23;20120;-96
2024/02/05 18:20:07;;;;;;;7.43;4.00;;;;;;;15.02;34.04;99253.97;6144421;23;20030;-96
2024/02/05 18:22:35;;;;;;;6.93;3.67;;;;;;;15.03;33.84;99266.44;6144767;23;20009;-96
2024/02/05 18:25:01;;;;;;;8.10;4.13;;;;;;;14.94;34.48;99264.44;6143995;23;20032;-96
2024/02/05 18:27:27;;;;;;;9.05;4.13;;;;;;;14.93;34.55;99270.94;6169265;23;20455;-96
2024/02/05 18:29:56;;;;;;;8.63;4.32;;;;;;;14.86;34.26;99253.47;6147730;23;20427;-96
2024/02/05 18:32:22;;;;;;;6.53;3.55;;;;;;;14.90;34.22;99266.13;6147123;23;19993;-96
2024/02/05 18:34:53;;;;;;;5.72;3.67;;;;;;;14.79;34.54;99251.13;6172887;23;20000;-96
2024/02/05 18:40:58;;;;;;;7.35;3.78;;;;;;;14.74;34.96;99256.66;6224873;23;20019;-96
2024/02/05 18:43:24;;;;;;;6.68;3.80;;;;;;;14.72;34.67;99258.88;6153616;23;20044;-96
2024/02/05 18:45:52;;;;;;;5.88;3.70;;;;;;;14.77;34.60;99268.81;6173380;23;20418;-96
2024/02/05 18:48:17;;;;;;;7.57;3.55;;;;;;;14.77;34.96;99257.97;6147097;23;20027;-96
2024/02/05 18:50:43;;;;;;;6.38;3.65;;;;;;;14.68;34.92;99255.94;6144062;23;19996;-96
2024/02/05 18:53:09;;;;;;;5.03;3.83;;;;;;;14.63;34.86;99258.75;6143276;23;20427;-96
2024/02/05 18:55:34;;;;;;;5.25;3.38;;;;;;;14.68;34.63;99276.81;6143333;23;19997;-96
2024/02/05 18:58:09;;;;;;;5.50;3.00;;;;;;;14.68;34.74;99274.13;6143652;23;20053;-96
2024/02/05 19:00:37;;;;;;;5.97;2.88;;;;;;;14.62;34.97;99261.75;6147716;23;20000;-96
2024/02/05 19:03:04;;;;;;;7.55;3.38;;;;;;;14.56;34.78;99261.03;6143792;23;20105;-96
2024/02/05 19:05:31;;;;;;;6.75;3.38;;;;;;;14.58;35.22;99277.00;6167071;23;20432;-96
2024/02/05 19:07:57;;;;;;;5.95;3.00;;;;;;;14.68;34.70;99282.25;6143205;23;20021;-96
2024/02/05 19:10:22;;;;;;;3.70;2.60;;;;;;;14.59;35.01;99274.00;6143606;23;20011;-96
2024/02/05 19:12:49;;;;;;;5.55;3.03;;;;;;;14.62;35.10;99292.38;6142517;23;20435;-96
2024/02/05 19:15:15;;;;;;;6.28;3.20;;;;;;;14.62;35.34;99297.78;6167858;23;20318;-96
2024/02/05 19:17:41;;;;;;;7.75;3.50;;;;;;;14.50;35.08;99286.56;6143089;23;20010;-96
2024/02/05 19:20:07;;;;;;;4.38;3.00;;;;;;;14.49;35.45;99284.97;6142928;23;20024;-94
2024/02/05 19:22:35;;;;;;;5.60;3.42;;;;;;;14.42;35.14;99277.25;6144175;23;20481;-96
2024/02/05 19:25:00;;;;;;;6.60;3.42;;;;;;;14.33;35.44;99276.28;6144005;23;20004;-96
2024/02/05 19:27:26;;;;;;;5.65;3.22;;;;;;;14.38;35.38;99283.53;6168786;23;20007;-96
2024/02/05 19:29:55;;;;;;;8.68;3.70;;;;;;;14.33;35.88;99274.38;6144154;23;20004;-96
2024/02/05 19:32:20;;;;;;;5.03;3.08;;;;;;;14.33;35.47;99274.38;6144319;23;20005;-96
2024/02/05 19:34:46;;;;;;;5.03;2.90;;;;;;;14.48;35.26;99291.50;6143346;23;20427;-96
2024/02/05 19:37:15;;;;;;;5.45;3.08;;;;;;;14.33;35.33;99281.72;6147308;23;20038;-96
2024/02/05 19:39:41;;;;;;;5.78;2.70;;;;;;;14.38;35.44;99291.66;6170330;23;20079;-96
2024/02/05 19:42:29;;;;;;;4.88;2.70;;;;;;;14.30;35.35;99282.31;6168263;23;20059;-96
2024/02/05 19:44:55;;;;;;;5.00;2.88;;;;;;;14.44;35.41;99310.22;6163499;23;20008;-96
2024/02/05 19:47:21;;;;;;;7.30;2.42;;;;;;;14.38;35.38;99297.91;6143859;23;20332;-96
2024/02/05 19:49:47;;;;;;;3.83;2.38;;;;;;;14.39;35.87;99304.09;6143901;23;20017;-96
2024/02/05 19:52:16;;;;;;;6.13;2.20;;;;;;;14.38;35.23;99289.78;6143626;23;20012;-96
2024/02/05 19:54:41;;;;;;;3.53;2.40;;;;;;;14.38;35.29;99292.47;6145468;23;20028;-96
2024/02/05 19:57:15;;;;;;;6.20;2.50;;;;;;;14.34;35.48;99302.28;6144741;23;19996;-95
2024/02/05 19:59:42;;;;;;;4.32;2.10;;;;;;;14.35;35.45;99307.41;6146714;23;20000;-96